createdAt,value
2022-08-09T00:01:43.034Z,4.07
2022-08-09T00:04:34.399Z,3.30
2022-08-09T00:07:03.366Z,3.10
2022-08-09T00:09:35.401Z,3.47
2022-08-09T00:12:08.582Z,4.35
2022-08-09T00:14:38.362Z,3.80
2022-08-09T00:17:08.378Z,4.03
2022-08-09T00:19:55.737Z,4.75
2022-08-09T00:22:29.004Z,3.92
2022-08-09T00:25:04.042Z,4.20
2022-08-09T00:27:43.065Z,4.07
2022-08-09T00:32:52.904Z,3.42
2022-08-09T00:35:20.159Z,3.65
2022-08-09T00:37:47.728Z,3.53
2022-08-09T00:40:17.397Z,3.80
2022-08-09T00:44:20.664Z,3.78
2022-08-09T00:45:34.781Z,3.50
2022-08-09T00:48:03.357Z,3.42
2022-08-09T00:50:30.824Z,3.40
2022-08-09T00:52:58.524Z,3.45
2022-08-09T00:56:03.658Z,3.28
2022-08-09T00:58:22.203Z,3.22
2022-08-09T01:00:53.919Z,3.60
2022-08-09T01:03:28.453Z,4.45
2022-08-09T01:06:17.954Z,4.03
2022-08-09T01:09:06.127Z,3.63
2022-08-09T01:11:39.441Z,4.20
2022-08-09T01:14:09.935Z,4.20
2022-08-09T01:16:47.346Z,4.53
2022-08-09T01:19:42.544Z,4.25
2022-08-09T01:22:18.927Z,4.55
2022-08-09T01:25:07.187Z,4.55
2022-08-09T01:27:36.136Z,4.53
2022-08-09T01:30:33.477Z,4.78
2022-08-09T01:35:38.688Z,4.13
2022-08-09T01:38:15.301Z,4.45
2022-08-09T01:40:52.833Z,4.80
2022-08-09T01:43:32.316Z,4.15
2022-08-09T01:46:23.840Z,4.47
2022-08-09T01:48:54.012Z,4.13
2022-08-09T01:51:23.167Z,4.53
2022-08-09T01:53:58.096Z,4.28
2022-08-09T01:56:28.793Z,4.15
2022-08-09T01:58:57.662Z,4.53
2022-08-09T02:01:30.678Z,4.00
2022-08-09T02:04:15.874Z,4.22
2022-08-09T02:07:02.692Z,4.30
2022-08-09T02:09:41.990Z,3.90
2022-08-09T02:12:10.384Z,3.97
2022-08-09T02:14:42.923Z,3.53
2022-08-09T02:17:54.962Z,4.28
2022-08-09T02:19:59.042Z,4.20
2022-08-09T02:22:34.751Z,3.75
2022-08-09T02:25:06.747Z,3.90
2022-08-09T02:27:58.368Z,4.20
2022-08-09T02:30:23.761Z,4.70
2022-08-09T02:32:53.993Z,4.70
2022-08-09T02:35:46.273Z,4.53
2022-08-09T02:38:11.580Z,4.65
2022-08-09T02:40:49.812Z,4.93
2022-08-09T02:43:17.837Z,5.50
2022-08-09T02:45:52.828Z,5.35
2022-08-09T02:48:31.199Z,5.20
2022-08-09T02:51:02.533Z,5.20
2022-08-09T02:53:40.282Z,5.68
2022-08-09T02:56:21.793Z,5.35
2022-08-09T02:58:50.003Z,5.82
2022-08-09T03:01:21.915Z,5.43
2022-08-09T03:04:17.538Z,5.80
2022-08-09T03:06:46.779Z,5.38
2022-08-09T03:09:17.375Z,5.72
2022-08-09T03:12:06.012Z,4.82
2022-08-09T03:14:32.798Z,5.38
2022-08-09T03:17:05.461Z,4.90
2022-08-09T03:19:57.744Z,4.80
2022-08-09T03:22:25.536Z,4.70
2022-08-09T03:25:06.558Z,5.00
2022-08-09T03:27:48.055Z,4.93
2022-08-09T03:30:33.221Z,4.93
2022-08-09T03:33:05.531Z,4.72
2022-08-09T03:35:44.436Z,4.65
2022-08-09T03:38:28.841Z,4.47
2022-08-09T03:40:58.068Z,4.43
2022-08-09T03:43:31.985Z,4.70
2022-08-09T03:46:03.831Z,5.40
2022-08-09T03:48:52.770Z,4.60
2022-08-09T03:51:43.986Z,4.70
2022-08-09T03:54:11.369Z,4.57
2022-08-09T03:56:41.251Z,4.55
2022-08-09T03:59:17.199Z,4.10
2022-08-09T04:01:50.027Z,3.50
2022-08-09T04:04:18.009Z,3.60
2022-08-09T04:06:48.803Z,3.35
2022-08-09T04:09:47.847Z,3.08
2022-08-09T04:12:11.874Z,2.22
2022-08-09T04:15:00.747Z,2.55
2022-08-09T04:17:29.857Z,2.72
2022-08-09T04:20:02.547Z,4.03
2022-08-09T04:22:30.416Z,3.90
2022-08-09T04:24:59.517Z,3.55
2022-08-09T04:27:30.332Z,4.68
2022-08-09T04:30:00.097Z,4.70
2022-08-09T04:32:34.145Z,4.65
2022-08-09T04:35:08.605Z,4.90
2022-08-09T04:37:45.102Z,5.38
2022-08-09T04:40:19.547Z,5.53
2022-08-09T04:42:59.222Z,6.63
2022-08-09T04:45:30.426Z,5.72
2022-08-09T04:48:04.206Z,6.30
2022-08-09T04:50:38.058Z,5.72
2022-08-09T04:53:11.638Z,6.00
2022-08-09T04:55:57.822Z,5.75
2022-08-09T04:58:31.573Z,5.93
2022-08-09T05:01:01.244Z,5.78
2022-08-09T05:03:40.125Z,5.47
2022-08-09T05:06:11.568Z,5.47
2022-08-09T05:08:38.874Z,6.07
2022-08-09T05:11:11.729Z,5.95
2022-08-09T05:13:40.496Z,6.55
2022-08-09T05:16:08.782Z,6.97
2022-08-09T05:18:57.491Z,6.60
2022-08-09T05:21:30.348Z,6.97
2022-08-09T05:24:02.021Z,7.03
2022-08-09T05:26:37.234Z,8.02
2022-08-09T05:29:24.417Z,7.75
2022-08-09T05:32:02.075Z,7.43
2022-08-09T05:34:32.813Z,7.65
2022-08-09T05:37:01.625Z,7.85
2022-08-09T05:39:36.344Z,7.07
2022-08-09T05:42:17.273Z,7.55
2022-08-09T05:44:50.690Z,6.93
2022-08-09T05:47:19.699Z,7.03
2022-08-09T05:50:26.087Z,7.28
2022-08-09T05:52:38.503Z,7.30
2022-08-09T05:55:08.529Z,7.05
2022-08-09T05:57:56.099Z,6.53
2022-08-09T06:00:24.350Z,6.75
2022-08-09T06:02:54.157Z,7.00
2022-08-09T06:05:49.924Z,6.35
2022-08-09T06:08:10.918Z,6.20
2022-08-09T06:10:38.457Z,6.53
2022-08-09T06:13:12.414Z,6.25
2022-08-09T06:15:47.758Z,6.78
2022-08-09T06:18:19.127Z,6.53
2022-08-09T06:20:54.190Z,6.90
2022-08-09T06:23:57.356Z,6.57
2022-08-09T06:26:20.329Z,6.88
2022-08-09T06:28:49.220Z,6.43
2022-08-09T06:31:16.501Z,7.13
2022-08-09T06:33:53.124Z,5.50
2022-08-09T06:36:20.773Z,6.97
2022-08-09T06:38:57.076Z,6.88
2022-08-09T06:42:01.184Z,6.15
2022-08-09T06:44:14.780Z,6.20
2022-08-09T06:46:46.794Z,6.38
2022-08-09T06:49:22.780Z,5.72
2022-08-09T06:51:56.865Z,6.93
2022-08-09T06:54:24.300Z,6.90
2022-08-09T06:56:53.774Z,7.10
2022-08-09T07:00:52.798Z,5.97
2022-08-09T07:02:08.830Z,5.90
2022-08-09T07:04:36.771Z,5.75
2022-08-09T07:07:12.015Z,5.72
2022-08-09T07:09:53.609Z,5.22
2022-08-09T07:12:40.725Z,5.30
2022-08-09T07:16:36.410Z,5.50
2022-08-09T07:18:02.331Z,5.05
2022-08-09T07:20:30.476Z,5.07
2022-08-09T07:22:58.708Z,4.95
2022-08-09T07:25:29.943Z,4.80
2022-08-09T07:28:07.785Z,4.55
2022-08-09T07:30:36.493Z,4.53
2022-08-09T07:33:12.429Z,4.43
2022-08-09T07:35:54.011Z,4.38
2022-08-09T07:38:23.242Z,3.95
2022-08-09T07:41:00.872Z,4.15
2022-08-09T07:43:41.324Z,4.68
2022-08-09T07:46:19.083Z,3.60
2022-08-09T07:48:52.733Z,3.33
2022-08-09T07:52:05.357Z,3.70
2022-08-09T07:54:19.024Z,3.35
2022-08-09T07:56:49.586Z,3.00
2022-08-09T07:59:25.216Z,2.72
2022-08-09T08:02:02.397Z,2.50
2022-08-09T08:04:31.870Z,3.00
2022-08-09T08:07:15.508Z,2.38
2022-08-09T08:09:53.620Z,2.13
2022-08-09T08:12:32.082Z,2.33
2022-08-09T08:14:59.567Z,1.73
2022-08-09T08:17:52.440Z,2.28
2022-08-09T08:20:14.896Z,1.50
2022-08-09T08:22:42.562Z,1.63
2022-08-09T08:25:13.467Z,1.40
2022-08-09T08:27:43.999Z,1.48
2022-08-09T08:30:20.224Z,1.30
2022-08-09T08:32:52.534Z,1.42
2022-08-09T08:35:22.166Z,1.33
2022-08-09T08:38:04.877Z,1.40
2022-08-09T08:40:38.603Z,1.45
2022-08-09T08:43:13.581Z,1.30
2022-08-09T08:45:51.580Z,1.17
2022-08-09T08:48:22.533Z,1.30
2022-08-09T08:50:56.513Z,1.20
2022-08-09T08:53:23.808Z,1.10
2022-08-09T08:56:00.499Z,1.40
2022-08-09T08:58:29.550Z,1.20
2022-08-09T09:01:02.904Z,1.67
2022-08-09T09:03:38.247Z,1.50
2022-08-09T09:06:07.930Z,1.45
2022-08-09T09:08:40.903Z,1.08
2022-08-09T09:13:55.015Z,1.10
2022-08-09T09:16:35.612Z,1.20
2022-08-09T09:19:37.191Z,1.10
2022-08-09T09:21:59.264Z,0.70
2022-08-09T09:24:30.040Z,0.90
2022-08-09T09:26:58.732Z,1.20
2022-08-09T09:30:10.608Z,1.10
2022-08-09T09:32:35.416Z,1.20
2022-08-09T09:35:09.580Z,1.30
2022-08-09T09:37:40.545Z,1.08
2022-08-09T09:40:12.402Z,1.00
2022-08-09T09:42:43.059Z,0.93
2022-08-09T09:45:26.444Z,0.90
2022-08-09T09:50:50.607Z,0.77
2022-08-09T09:53:20.376Z,0.85
2022-08-09T09:56:03.882Z,0.60
2022-08-09T09:58:44.829Z,0.70
2022-08-09T10:01:36.879Z,0.73
2022-08-09T10:04:10.146Z,0.70
2022-08-09T10:06:43.323Z,0.77
2022-08-09T10:09:22.929Z,0.65
2022-08-09T10:12:14.163Z,0.63
2022-08-09T10:14:49.473Z,0.60
2022-08-09T10:17:39.111Z,0.93
2022-08-09T10:20:15.022Z,0.70
2022-08-09T10:22:42.954Z,0.77
2022-08-09T10:25:14.729Z,0.80
2022-08-09T10:27:56.002Z,1.08
2022-08-09T10:33:29.639Z,0.93
2022-08-09T10:36:00.827Z,0.63
2022-08-09T10:38:55.400Z,0.77
2022-08-09T10:41:17.973Z,0.65
2022-08-09T10:43:59.621Z,1.02
2022-08-09T10:46:55.223Z,0.70
2022-08-09T10:49:51.501Z,0.70
2022-08-09T10:52:42.933Z,0.57
2022-08-09T10:55:27.625Z,0.60
2022-08-09T10:58:00.115Z,0.80
2022-08-09T11:00:50.996Z,0.93
2022-08-09T11:03:49.957Z,0.70
2022-08-09T11:06:18.993Z,0.82
2022-08-09T11:08:51.725Z,0.70
2022-08-09T11:11:22.533Z,0.60
2022-08-09T11:14:09.543Z,0.70
2022-08-09T11:16:44.251Z,0.70
2022-08-09T11:19:14.275Z,0.60
2022-08-09T11:21:57.264Z,0.75
2022-08-09T11:24:52.641Z,0.90
2022-08-09T11:28:04.172Z,0.60
2022-08-09T11:30:32.607Z,0.68
2022-08-09T11:33:22.203Z,0.70
2022-08-09T11:35:59.866Z,0.80
2022-08-09T11:38:28.666Z,0.82
2022-08-09T11:41:07.255Z,0.60
2022-08-09T11:43:43.294Z,0.60
2022-08-09T11:46:10.702Z,0.43
2022-08-09T11:48:50.316Z,0.80
2022-08-09T11:52:06.739Z,0.70
2022-08-09T11:54:30.106Z,0.90
2022-08-09T11:57:28.306Z,0.85
2022-08-09T12:00:13.183Z,0.90
2022-08-09T12:02:51.025Z,0.57
2022-08-09T12:05:22.886Z,0.82
2022-08-09T12:07:52.661Z,0.95
2022-08-09T12:10:38.918Z,0.90
2022-08-09T12:14:07.194Z,0.80
2022-08-09T12:16:07.981Z,1.00
2022-08-09T12:18:55.633Z,0.70
2022-08-09T12:21:38.161Z,0.70
2022-08-09T12:28:59.751Z,0.80
2022-08-09T12:29:51.476Z,0.68
2022-08-09T12:32:28.806Z,0.75
2022-08-09T12:35:03.138Z,0.82
2022-08-09T12:37:33.751Z,0.80
2022-08-09T12:40:17.948Z,0.70
2022-08-09T12:42:46.481Z,0.90
2022-08-09T12:45:32.365Z,0.70
2022-08-09T12:48:03.168Z,0.80
2022-08-09T12:50:30.701Z,0.70
2022-08-09T12:53:09.019Z,0.77
2022-08-09T12:56:14.243Z,0.57
2022-08-09T12:58:32.704Z,0.90
2022-08-09T13:01:04.653Z,0.73
2022-08-09T13:03:53.330Z,0.80
2022-08-09T13:06:37.544Z,0.90
2022-08-09T13:09:14.188Z,0.82
2022-08-09T13:11:43.611Z,0.80
2022-08-09T13:14:42.232Z,0.77
2022-08-09T13:17:03.376Z,0.75
2022-08-09T13:20:11.303Z,0.90
2022-08-09T13:22:36.783Z,0.80
2022-08-09T13:25:13.750Z,0.88
2022-08-09T13:27:54.603Z,0.80
2022-08-09T13:30:49.454Z,0.70
2022-08-09T13:33:11.639Z,0.70
2022-08-09T13:36:39.656Z,0.98
2022-08-09T13:38:54.666Z,0.90
2022-08-09T13:41:58.512Z,0.88
2022-08-09T13:44:13.728Z,0.80
2022-08-09T13:47:16.227Z,0.90
2022-08-09T13:49:37.469Z,0.93
2022-08-09T13:52:09.392Z,0.70
2022-08-09T13:54:41.778Z,0.85
2022-08-09T13:57:36.248Z,0.77
2022-08-09T14:00:05.169Z,0.75
2022-08-09T14:02:33.163Z,0.93
2022-08-09T14:05:10.118Z,0.90
2022-08-09T14:07:40.986Z,0.70
2022-08-09T14:10:09.451Z,0.82
2022-08-09T14:12:44.695Z,0.60
2022-08-09T14:16:06.364Z,0.95
2022-08-09T14:18:18.705Z,0.70
2022-08-09T14:20:48.951Z,1.00
2022-08-09T14:23:20.411Z,0.75
2022-08-09T14:26:05.954Z,0.80
2022-08-09T14:28:34.534Z,0.80
2022-08-09T14:31:01.589Z,1.10
2022-08-09T14:33:28.676Z,0.88
2022-08-09T14:35:59.290Z,0.80
2022-08-09T14:38:46.327Z,0.80
2022-08-09T14:41:39.508Z,0.70
2022-08-09T14:44:09.636Z,0.90
2022-08-09T14:47:03.085Z,0.82
2022-08-09T14:49:34.435Z,0.80
2022-08-09T14:52:13.467Z,1.00
2022-08-09T14:54:42.432Z,0.90
2022-08-09T14:57:09.556Z,0.80
2022-08-09T14:59:38.594Z,0.98
2022-08-09T15:02:09.459Z,0.70
2022-08-09T15:04:40.223Z,0.80
2022-08-09T15:07:10.616Z,0.70
2022-08-09T15:10:07.246Z,0.85
2022-08-09T15:12:27.618Z,0.77
2022-08-09T15:14:54.770Z,0.65
2022-08-09T15:17:22.128Z,0.77
2022-08-09T15:19:59.605Z,0.70
2022-08-09T15:22:27.295Z,0.82
2022-08-09T15:24:58.511Z,0.90
2022-08-09T15:27:27.470Z,0.90
2022-08-09T15:30:55.571Z,0.63
2022-08-09T15:32:45.520Z,0.70
2022-08-09T15:35:40.098Z,0.60
2022-08-09T15:38:10.971Z,1.00
2022-08-09T15:40:43.736Z,0.90
2022-08-09T15:45:51.653Z,0.85
2022-08-09T15:48:31.733Z,1.00
2022-08-09T15:51:00.245Z,0.80
2022-08-09T15:54:04.442Z,0.75
2022-08-09T15:56:28.733Z,0.82
2022-08-09T15:58:58.253Z,0.70
2022-08-09T16:01:31.295Z,0.70
2022-08-09T16:04:03.077Z,0.57
2022-08-09T16:06:35.766Z,0.93
2022-08-09T16:09:07.568Z,0.80
2022-08-09T16:11:34.731Z,0.80
2022-08-09T16:14:09.594Z,0.68
2022-08-09T16:16:41.931Z,1.30
2022-08-09T16:19:16.163Z,1.20
2022-08-09T16:21:52.013Z,1.00
2022-08-09T16:24:33.175Z,0.80
2022-08-09T16:27:01.230Z,0.85
2022-08-09T16:29:37.752Z,0.80
2022-08-09T16:32:33.673Z,0.80
2022-08-09T16:35:02.662Z,0.80
2022-08-09T16:37:54.863Z,0.60
2022-08-09T16:40:20.651Z,0.80
2022-08-09T16:43:06.347Z,0.93
2022-08-09T16:45:33.462Z,0.90
2022-08-09T16:48:38.850Z,0.85
2022-08-09T16:50:59.109Z,0.93
2022-08-09T16:53:34.689Z,0.90
2022-08-09T16:56:09.359Z,0.80
2022-08-09T16:58:39.638Z,1.15
2022-08-09T17:01:10.483Z,0.95
2022-08-09T17:03:37.758Z,0.98
2022-08-09T17:06:28.483Z,0.70
2022-08-09T17:09:01.834Z,0.98
2022-08-09T17:11:41.654Z,0.90
2022-08-09T17:14:25.921Z,0.90
2022-08-09T17:16:55.992Z,1.40
2022-08-09T17:19:23.377Z,1.25
2022-08-09T17:21:54.603Z,1.15
2022-08-09T17:24:28.349Z,1.00
2022-08-09T17:26:58.482Z,0.80
2022-08-09T17:29:31.775Z,0.80
2022-08-09T17:32:05.377Z,0.68
2022-08-09T17:35:06.344Z,0.68
2022-08-09T17:37:22.235Z,1.00
2022-08-09T17:39:53.800Z,0.70
2022-08-09T17:42:40.966Z,0.95
2022-08-09T17:45:15.794Z,0.73
2022-08-09T17:47:55.540Z,1.00
2022-08-09T17:50:37.060Z,1.13
2022-08-09T17:53:19.622Z,0.85
2022-08-09T17:55:54.116Z,0.82
2022-08-09T17:58:27.021Z,0.80
2022-08-09T18:00:58.313Z,0.90
2022-08-09T18:03:30.365Z,0.80
2022-08-09T18:06:00.939Z,0.82
2022-08-09T18:08:31.878Z,0.95
2022-08-09T18:11:02.190Z,1.00
2022-08-09T18:13:38.845Z,1.10
2022-08-09T18:16:28.829Z,1.38
2022-08-09T18:19:03.928Z,1.25
2022-08-09T18:21:46.106Z,0.90
2022-08-09T18:24:17.296Z,1.45
2022-08-09T18:26:49.387Z,0.90
2022-08-09T18:30:40.546Z,0.95
2022-08-09T18:32:05.465Z,0.80
2022-08-09T18:34:35.637Z,0.82
2022-08-09T18:37:03.750Z,1.02
2022-08-09T18:39:32.801Z,0.90
2022-08-09T18:42:05.442Z,0.98
2022-08-09T18:44:36.482Z,1.15
2022-08-09T18:47:09.967Z,1.00
2022-08-09T18:49:46.500Z,0.80
2022-08-09T18:52:18.590Z,1.20
2022-08-09T18:54:53.435Z,0.93
2022-08-09T18:57:42.763Z,1.20
2022-08-09T19:00:16.722Z,1.13
2022-08-09T19:02:50.897Z,1.00
2022-08-09T19:05:20.452Z,0.82
2022-08-09T19:08:10.505Z,0.82
2022-08-09T19:13:19.970Z,0.90
2022-08-09T19:15:52.559Z,0.90
2022-08-09T19:18:33.080Z,1.02
2022-08-09T19:21:08.899Z,1.00
2022-08-09T19:24:33.463Z,0.90
2022-08-09T19:26:32.242Z,0.73
2022-08-09T19:29:03.669Z,0.85
2022-08-09T19:31:45.732Z,0.90
2022-08-09T19:34:21.566Z,1.40
2022-08-09T19:36:50.890Z,1.20
2022-08-09T19:39:21.014Z,1.00
2022-08-09T19:41:59.980Z,1.27
2022-08-09T19:44:29.819Z,1.00
2022-08-09T19:46:57.434Z,0.98
2022-08-09T19:50:07.709Z,1.00
2022-08-09T19:52:14.032Z,1.20
2022-08-09T19:54:41.385Z,0.82
2022-08-09T19:57:10.349Z,1.05
2022-08-09T19:59:59.503Z,1.00
2022-08-09T20:04:10.032Z,1.15
2022-08-09T20:05:16.756Z,1.20
2022-08-09T20:07:57.174Z,0.90
2022-08-09T20:10:34.959Z,0.90
2022-08-09T20:13:06.720Z,1.00
2022-08-09T20:16:33.029Z,1.10
2022-08-09T20:18:27.811Z,1.30
2022-08-09T20:20:56.959Z,1.60
2022-08-09T20:23:39.729Z,1.60
2022-08-09T20:28:47.952Z,1.30
2022-08-09T20:31:16.240Z,1.30
2022-08-09T20:33:44.631Z,1.30
2022-08-09T20:36:12.461Z,1.23
2022-08-09T20:41:32.302Z,1.20
2022-08-09T20:44:04.468Z,1.48
2022-08-09T20:46:43.898Z,1.23
2022-08-09T20:49:13.551Z,1.05
2022-08-09T20:51:42.157Z,1.00
2022-08-09T20:54:12.515Z,1.10
2022-08-09T20:56:40.959Z,0.90
2022-08-09T20:59:08.305Z,1.10
2022-08-09T21:01:50.367Z,1.00
2022-08-09T21:05:52.882Z,1.30
2022-08-09T21:07:11.901Z,1.35
2022-08-09T21:09:55.551Z,1.10
2022-08-09T21:15:13.069Z,1.00
2022-08-09T21:18:11.237Z,1.30
2022-08-09T21:20:31.852Z,1.08
2022-08-09T21:23:00.508Z,1.45
2022-08-09T21:25:55.978Z,1.20
2022-08-09T21:28:36.038Z,1.10
2022-08-09T21:31:17.391Z,1.33
2022-08-09T21:33:50.760Z,1.20
2022-08-09T21:36:19.840Z,1.07
2022-08-09T21:38:51.079Z,1.20
2022-08-09T21:42:05.973Z,1.00
2022-08-09T21:44:32.440Z,1.10
2022-08-09T21:47:01.687Z,1.30
2022-08-09T21:49:28.973Z,1.00
2022-08-09T21:52:14.354Z,1.20
2022-08-09T21:54:46.082Z,1.10
2022-08-09T21:57:36.773Z,1.00
2022-08-09T22:00:00.883Z,1.50
2022-08-09T22:02:36.061Z,1.05
2022-08-09T22:05:17.094Z,1.00
2022-08-09T22:07:54.195Z,1.10
2022-08-09T22:10:23.096Z,1.30
2022-08-09T22:12:52.150Z,1.40
2022-08-09T22:15:20.727Z,1.20
2022-08-09T22:17:51.291Z,1.30
2022-08-09T22:20:21.801Z,1.08
2022-08-09T22:23:02.199Z,1.00
2022-08-09T22:26:07.384Z,1.30
2022-08-09T22:28:21.014Z,1.00
2022-08-09T22:30:56.850Z,1.10
2022-08-09T22:33:48.601Z,1.10
2022-08-09T22:36:19.462Z,1.23
2022-08-09T22:38:47.164Z,1.10
2022-08-09T22:41:14.256Z,1.00
2022-08-09T22:44:03.514Z,1.30
2022-08-09T22:48:18.483Z,1.10
2022-08-09T22:49:18.965Z,1.17
2022-08-09T22:51:49.382Z,1.35
2022-08-09T22:54:27.339Z,1.15
2022-08-09T22:56:58.634Z,1.00
2022-08-09T22:59:57.166Z,1.13
2022-08-09T23:02:15.163Z,0.93
2022-08-09T23:04:54.060Z,1.20
2022-08-09T23:08:23.252Z,0.98
2022-08-09T23:10:29.364Z,1.20
2022-08-09T23:12:56.970Z,1.13
2022-08-09T23:15:24.132Z,1.08
2022-08-09T23:17:51.272Z,1.10
2022-08-09T23:20:18.363Z,1.08
2022-08-09T23:22:46.768Z,1.00
2022-08-09T23:25:14.163Z,1.00
2022-08-09T23:28:14.986Z,1.10
2022-08-09T23:30:29.801Z,1.10
2022-08-09T23:32:56.903Z,1.10
2022-08-09T23:35:26.003Z,1.10
2022-08-09T23:37:53.353Z,1.20
2022-08-09T23:40:22.206Z,1.20
2022-08-09T23:42:49.258Z,1.00
2022-08-09T23:45:37.318Z,1.25
2022-08-09T23:48:08.580Z,1.05
2022-08-09T23:50:36.206Z,1.58
2022-08-09T23:53:03.550Z,1.27
2022-08-09T23:55:30.757Z,1.15
2022-08-09T23:58:07.887Z,1.10
